モスクワ/シェレメーチエヴォ の空港の天気 - METARとTAF

シェレメーチエヴォ国際空港(モスクワ) ( UUEE / SVO ) - ロシア モスクワ
飛行場実況気象(Metar)
観測時間12/14 09:00 MSK (12/14 06:00 UTC)
風向・風速北東 5m/s
視程10km以上
天気現象
全天を覆う雲 雲底高度 180m
気温-3℃
湿度100%
気圧1026hPa
METARUUEE 140600Z 05005MPS 9999 OVC006 M03/M03 Q1026 R06C/550336 R06R/550340 NOSIG
過去の天気等 Google飛行場航空写真 Wunderground天気予報

過去48時間のMETAR

飛行場予報(TAF)
発表時間: 12/14 07:48 MSK (12/14 04:48 UTC)
予報対象時間: 14日9時 MSK ~ 15日9時 MSK
風向・風速北東 7m/s
視程9000m
全天を覆う雲 雲底高度 240m
14日9時 MSK ~ 14日18時 MSK に一時的に
風向・風速北東 8m/s 瞬間風速 13m/s
視程3100m
天気現象弱い雪
全天を覆う雲 雲底高度 180m
TAF UUEE 140448Z 1406/1506 04007MPS 9000 OVC008 TXM01/1412Z TNM06/1506Z
TEMPO 1406/1415 04008G13MPS 3100 -SN OVC006